Time;durP1;ratioP1;P1;durP2;ratioP2;P2;SDS_P1;SDS_P2;PMS_P1;PMS_P2;Temp;Humidity;BMP_temperature;BMP_pressure;BME280_temperature;BME280_humidity;BME280_pressure;Samples;Min_cycle;Max_cycle;Signal;HPM_P1;HPM_P2
2022/03/11 00:02:35;;;;;;;28.85;13.35;;;-0.90;97.90;;;;;;21056081;28;20097;-53
2022/03/11 00:12:38;;;;;;;32.60;13.13;;;-0.50;96.60;;;;;;21056937;28;20036;-54
2022/03/11 00:22:42;;;;;;;32.30;13.05;;;-0.90;96.90;;;;;;21138925;28;20061;-52
2022/03/11 00:32:45;;;;;;;31.92;13.88;;;-1.40;97.50;;;;;;21138023;28;20039;-53
2022/03/11 00:42:48;;;;;;;27.75;12.48;;;-1.70;99.80;;;;;;21138094;28;20391;-51
2022/03/11 00:52:50;;;;;;;34.03;14.48;;;-1.90;99.50;;;;;;21135101;28;20035;-53
2022/03/11 01:02:53;;;;;;;40.92;16.55;;;-2.00;99.90;;;;;;21135302;28;20092;-52
2022/03/11 01:12:56;;;;;;;44.50;19.08;;;-2.40;99.90;;;;;;21134386;28;20039;-51
2022/03/11 01:22:58;;;;;;;46.42;19.05;;;-2.40;99.90;;;;;;21117080;28;20036;-52
2022/03/11 01:33:01;;;;;;;49.08;20.15;;;-2.60;99.90;;;;;;21133956;28;20414;-51
2022/03/11 01:43:03;;;;;;;50.95;22.40;;;-2.70;99.90;;;;;;21117158;28;20449;-55
2022/03/11 01:53:08;;;;;;;52.53;19.65;;;-2.90;99.90;;;;;;21132821;28;20062;-51
2022/03/11 02:03:12;;;;;;;54.17;21.52;;;-3.10;99.90;;;;;;21144296;28;20399;-52
2022/03/11 02:13:14;;;;;;;46.35;20.52;;;-3.10;99.90;;;;;;20987983;28;20196;-51
2022/03/11 02:23:18;;;;;;;54.25;21.90;;;-3.30;99.90;;;;;;20971028;28;20044;-52
2022/03/11 02:33:21;;;;;;;51.45;20.63;;;-3.30;99.90;;;;;;20970215;28;20037;-52
2022/03/11 02:43:25;;;;;;;50.35;20.25;;;-3.30;99.90;;;;;;20969851;28;20105;-52
2022/03/11 02:53:27;;;;;;;41.80;18.83;;;-3.50;99.90;;;;;;21060454;28;20039;-52
2022/03/11 03:03:31;;;;;;;40.95;17.65;;;-3.40;99.90;;;;;;21145187;28;20040;-52
2022/03/11 03:13:34;;;;;;;40.17;18.33;;;-3.40;99.90;;;;;;21115726;28;20087;-54
2022/03/11 03:23:36;;;;;;;39.20;16.13;;;-3.30;99.90;;;;;;21059051;28;20043;-53
2022/03/11 03:33:39;;;;;;;37.85;16.05;;;-3.30;99.90;;;;;;21058164;28;20093;-53
2022/03/11 03:43:41;;;;;;;39.28;15.93;;;-3.30;99.90;;;;;;21056060;28;20035;-52
2022/03/11 03:53:43;;;;;;;36.70;14.00;;;-3.40;99.90;;;;;;21055350;28;20399;-50
2022/03/11 04:03:47;;;;;;;36.33;14.52;;;-3.60;99.90;;;;;;21054399;28;20039;-52
2022/03/11 04:13:50;;;;;;;38.58;15.02;;;-3.70;99.90;;;;;;21053681;28;20078;-53
2022/03/11 04:23:53;;;;;;;36.88;15.13;;;-3.70;99.90;;;;;;21052428;28;20036;-56
2022/03/11 04:33:57;;;;;;;44.00;18.08;;;-3.70;99.90;;;;;;21052782;28;20085;-51
2022/03/11 04:44:00;;;;;;;42.25;16.50;;;-3.70;99.90;;;;;;21052482;28;20044;-53
2022/03/11 04:54:03;;;;;;;48.15;19.63;;;-3.60;99.90;;;;;;21051042;28;20044;-53
2022/03/11 05:04:07;;;;;;;40.72;16.83;;;-3.50;99.90;;;;;;21051546;28;20089;-51
2022/03/11 05:14:09;;;;;;;45.78;17.77;;;-3.40;99.90;;;;;;21098607;28;20647;-53
2022/03/11 05:24:11;;;;;;;43.45;18.35;;;-3.30;99.90;;;;;;21134028;28;20043;-55
2022/03/11 05:34:14;;;;;;;44.03;19.20;;;-3.20;99.90;;;;;;21133728;28;20070;-54
2022/03/11 05:44:17;;;;;;;49.45;20.00;;;-3.20;99.90;;;;;;21133764;28;20073;-53
2022/03/11 05:54:20;;;;;;;47.67;20.42;;;-3.10;99.90;;;;;;21116658;28;20040;-55
2022/03/11 06:04:23;;;;;;;42.67;19.05;;;-3.00;99.90;;;;;;21132832;28;20036;-52
2022/03/11 06:14:25;;;;;;;48.85;20.42;;;-2.70;99.90;;;;;;21133258;28;20040;-54
2022/03/11 06:24:28;;;;;;;43.97;20.45;;;-2.60;99.90;;;;;;21133076;28;20104;-55
2022/03/11 06:34:30;;;;;;;47.75;20.67;;;-2.50;99.90;;;;;;21134206;28;20088;-53
2022/03/11 06:44:33;;;;;;;49.90;19.65;;;-2.40;99.90;;;;;;21080330;28;20470;-56
2022/03/11 06:54:36;;;;;;;39.85;19.15;;;-2.00;99.90;;;;;;21066623;28;20140;-52
2022/03/11 07:04:39;;;;;;;39.70;19.73;;;-1.10;99.90;;;;;;21066162;28;20036;-53
2022/03/11 07:14:43;;;;;;;37.15;18.42;;;-0.50;99.90;;;;;;21117316;28;20117;-55
2022/03/11 07:24:46;;;;;;;38.17;19.30;;;0.00;99.90;;;;;;21148540;28;20096;-57
2022/03/11 07:34:48;;;;;;;34.10;17.23;;;0.50;99.90;;;;;;21147058;28;20040;-56
2022/03/11 07:44:51;;;;;;;26.75;15.02;;;1.00;99.90;;;;;;21127807;28;20437;-51
2022/03/11 07:54:53;;;;;;;29.55;14.43;;;1.30;99.90;;;;;;21141874;28;20031;-56
2022/03/11 08:04:57;;;;;;;27.27;14.25;;;1.50;99.90;;;;;;21143520;28;20043;-58
2022/03/11 08:15:01;;;;;;;24.95;13.35;;;1.40;99.90;;;;;;21086384;28;20044;-54
2022/03/11 08:25:06;;;;;;;29.13;13.85;;;1.10;99.90;;;;;;21074490;28;20028;-53
2022/03/11 08:35:09;;;;;;;28.83;14.75;;;0.90;99.90;;;;;;21056097;28;20028;-54
2022/03/11 08:45:12;;;;;;;26.15;13.95;;;0.90;99.90;;;;;;21054591;28;20032;-54
2022/03/11 08:55:16;;;;;;;25.33;13.02;;;0.90;99.90;;;;;;21055059;28;20040;-57
2022/03/11 09:05:20;;;;;;;25.40;14.00;;;0.90;99.90;;;;;;21055002;28;20032;-53
2022/03/11 09:15:24;;;;;;;26.85;14.25;;;0.70;99.90;;;;;;21054259;28;20044;-55
2022/03/11 09:25:27;;;;;;;31.80;16.05;;;0.70;99.90;;;;;;21054267;28;20487;-56
2022/03/11 09:35:30;;;;;;;26.90;14.80;;;0.80;99.90;;;;;;21070784;28;20051;-55
2022/03/11 09:45:33;;;;;;;28.35;14.50;;;0.80;99.90;;;;;;21036718;28;20032;-55
2022/03/11 09:55:35;;;;;;;24.98;13.85;;;0.90;99.90;;;;;;21051996;28;20561;-56
2022/03/11 10:06:04;;;;;;;29.15;14.57;;;1.00;99.90;;;;;;21051587;28;20040;-55
2022/03/11 10:16:37;;;;;;;26.52;14.35;;;1.10;99.90;;;;;;21112225;28;20043;-58
2022/03/11 10:26:46;;;;;;;25.88;14.30;;;1.10;99.90;;;;;;20726257;28;20042;-58
2022/03/11 10:36:58;;;;;;;29.95;14.90;;;1.10;99.90;;;;;;20727638;28;20066;-56
2022/03/11 10:47:25;;;;;;;30.15;15.30;;;1.20;99.90;;;;;;20726629;28;20608;-56
2022/03/11 10:57:36;;;;;;;26.20;14.13;;;1.30;99.90;;;;;;20862464;28;20100;-56
2022/03/11 11:07:43;;;;;;;31.50;15.23;;;1.40;99.90;;;;;;21147140;28;20101;-57
2022/03/11 11:17:52;;;;;;;26.17;14.45;;;1.40;99.90;;;;;;21113307;28;20051;-56
2022/03/11 11:27:59;;;;;;;24.88;13.35;;;1.30;99.90;;;;;;21146189;28;20623;-55
2022/03/11 11:38:22;;;;;;;25.30;13.55;;;1.30;99.90;;;;;;21145263;28;20040;-55
2022/03/11 11:48:35;;;;;;;26.55;13.35;;;1.40;99.90;;;;;;21144689;28;20040;-57
2022/03/11 11:58:50;;;;;;;26.63;13.90;;;1.40;99.90;;;;;;21143727;28;20410;-56
2022/03/11 12:08:54;;;;;;;22.95;12.20;;;1.50;99.90;;;;;;21142275;28;20024;-58
2022/03/11 12:18:57;;;;;;;22.75;11.70;;;1.60;99.90;;;;;;21141674;28;20052;-57
2022/03/11 12:29:00;;;;;;;24.45;11.35;;;1.60;99.90;;;;;;21141122;28;20058;-56
2022/03/11 12:39:02;;;;;;;22.02;11.38;;;1.30;99.90;;;;;;21125042;28;20456;-57
2022/03/11 12:49:06;;;;;;;22.85;12.25;;;1.10;99.90;;;;;;21122184;28;20073;-57
2022/03/11 12:59:11;;;;;;;20.67;11.63;;;1.10;99.90;;;;;;21139515;28;20089;-53
2022/03/11 13:09:13;;;;;;;22.45;12.35;;;1.00;99.90;;;;;;20978849;28;20202;-55
2022/03/11 13:19:16;;;;;;;19.80;10.65;;;1.00;99.90;;;;;;20960751;28;20105;-58
2022/03/11 13:29:19;;;;;;;19.83;10.07;;;1.10;99.90;;;;;;20960071;28;20040;-56
2022/03/11 13:39:21;;;;;;;20.20;10.60;;;1.20;99.90;;;;;;20959899;28;20082;-56
2022/03/11 13:49:36;;;;;;;21.30;10.80;;;1.20;99.90;;;;;;21049618;28;20048;-55
2022/03/11 13:59:39;;;;;;;17.88;10.18;;;1.10;99.90;;;;;;21147147;28;20112;-56
2022/03/11 14:09:43;;;;;;;17.95;10.27;;;1.30;99.90;;;;;;21169178;28;20128;-52
2022/03/11 14:19:46;;;;;;;18.98;9.52;;;1.10;99.90;;;;;;21151124;28;20108;-56
2022/03/11 14:29:49;;;;;;;18.30;10.70;;;1.10;99.90;;;;;;21150795;28;20057;-56
2022/03/11 14:39:53;;;;;;;20.70;10.77;;;1.00;99.90;;;;;;21150041;28;20055;-52
2022/03/11 14:49:55;;;;;;;21.17;10.75;;;1.20;99.90;;;;;;21149215;28;20032;-55
2022/03/11 14:59:59;;;;;;;17.90;10.43;;;1.10;99.90;;;;;;21149536;28;20044;-57
2022/03/11 15:10:03;;;;;;;21.15;10.45;;;1.00;99.90;;;;;;21146139;28;20040;-56
2022/03/11 15:20:07;;;;;;;20.13;10.57;;;1.10;99.90;;;;;;21148384;28;20100;-55
2022/03/11 15:30:11;;;;;;;18.25;10.13;;;1.10;99.90;;;;;;21147091;28;20036;-51
2022/03/11 15:40:19;;;;;;;21.33;10.98;;;1.10;99.90;;;;;;21147132;28;20089;-56
2022/03/11 15:50:21;;;;;;;23.13;10.90;;;1.00;99.90;;;;;;21147387;28;20101;-57
2022/03/11 16:00:24;;;;;;;22.50;11.48;;;0.80;99.90;;;;;;21146196;28;20192;-54
2022/03/11 16:10:28;;;;;;;21.52;11.45;;;0.70;99.90;;;;;;21144819;28;20031;-54
2022/03/11 16:20:31;;;;;;;22.33;11.88;;;0.50;99.90;;;;;;21143167;28;20234;-56
2022/03/11 16:30:35;;;;;;;23.75;11.75;;;0.50;99.90;;;;;;21141755;28;20540;-54
2022/03/11 16:40:37;;;;;;;23.05;11.95;;;0.40;99.90;;;;;;21141923;28;20035;-57
2022/03/11 16:50:40;;;;;;;23.63;13.30;;;0.30;99.90;;;;;;21122177;28;20097;-52
2022/03/11 17:00:46;;;;;;;22.42;12.18;;;0.10;99.90;;;;;;21138534;28;20106;-54
2022/03/11 17:10:49;;;;;;;21.92;11.52;;;0.00;99.90;;;;;;21118008;28;20028;-52
2022/03/11 17:20:53;;;;;;;24.77;12.93;;;-0.10;99.90;;;;;;21054150;28;20453;-53
2022/03/11 17:30:57;;;;;;;25.17;12.70;;;-0.20;99.90;;;;;;21051734;28;20040;-52
2022/03/11 17:41:01;;;;;;;23.23;12.05;;;-0.30;99.90;;;;;;21036103;28;20035;-52
2022/03/11 17:51:07;;;;;;;25.17;13.10;;;-0.30;99.90;;;;;;21052048;28;20040;-54
2022/03/11 18:01:11;;;;;;;27.15;13.35;;;-0.40;99.90;;;;;;21053492;28;20058;-53
2022/03/11 18:11:14;;;;;;;22.52;12.15;;;-0.40;99.90;;;;;;21054650;28;20062;-56
2022/03/11 18:21:17;;;;;;;20.80;11.18;;;-0.50;99.90;;;;;;21127182;28;20052;-57
2022/03/11 18:31:21;;;;;;;23.23;11.15;;;-0.50;99.90;;;;;;21119568;28;20032;-56
2022/03/11 18:41:24;;;;;;;22.40;11.50;;;-0.50;99.90;;;;;;21139657;28;20490;-54
2022/03/11 18:51:27;;;;;;;19.83;11.40;;;-0.50;99.90;;;;;;21133957;28;20040;-55
2022/03/11 19:01:29;;;;;;;21.60;10.82;;;-0.60;99.90;;;;;;21149809;28;20097;-56
2022/03/11 19:11:32;;;;;;;23.40;11.52;;;-0.60;99.90;;;;;;21125061;28;20106;-57
2022/03/11 19:21:36;;;;;;;20.05;12.05;;;-0.60;99.90;;;;;;21064753;28;20056;-52
2022/03/11 19:31:45;;;;;;;22.38;10.70;;;-0.60;99.90;;;;;;21047403;28;20089;-57
2022/03/11 19:41:50;;;;;;;23.48;12.32;;;-0.60;99.90;;;;;;21062892;28;20035;-55
2022/03/11 19:51:53;;;;;;;21.73;11.95;;;-0.70;99.90;;;;;;21061354;28;20495;-53
2022/03/11 20:01:56;;;;;;;21.73;12.30;;;-0.80;99.90;;;;;;21059913;28;20437;-57
2022/03/11 20:11:59;;;;;;;23.58;12.82;;;-0.80;99.90;;;;;;21059913;28;20044;-53
2022/03/11 20:22:03;;;;;;;22.45;11.82;;;-0.90;99.90;;;;;;21140811;28;20059;-54
2022/03/11 20:32:08;;;;;;;25.25;12.88;;;-0.90;99.90;;;;;;21142694;28;20051;-57
2022/03/11 20:42:11;;;;;;;28.65;13.45;;;-1.00;99.90;;;;;;21142594;28;20051;-53
2022/03/11 20:52:15;;;;;;;27.95;13.82;;;-1.00;99.90;;;;;;21140653;28;20100;-56
2022/03/11 21:02:17;;;;;;;26.08;14.07;;;-1.10;99.90;;;;;;21139749;28;20065;-53
2022/03/11 21:12:26;;;;;;;26.73;13.55;;;-1.20;99.90;;;;;;21138446;28;20096;-56
2022/03/11 21:22:30;;;;;;;22.33;11.55;;;-1.20;99.90;;;;;;21137327;28;20100;-51
2022/03/11 21:32:35;;;;;;;23.92;11.07;;;-1.30;99.90;;;;;;21138397;28;20028;-56
2022/03/11 21:42:38;;;;;;;20.85;11.07;;;-1.40;99.90;;;;;;21129733;28;20093;-56
2022/03/11 21:52:41;;;;;;;20.92;10.30;;;-1.40;99.90;;;;;;21137092;28;20036;-55
2022/03/11 22:02:44;;;;;;;21.65;10.93;;;-1.40;99.90;;;;;;21136026;28;20036;-52
2022/03/11 22:12:47;;;;;;;22.75;11.00;;;-1.50;99.90;;;;;;21135664;28;20093;-54
2022/03/11 22:22:51;;;;;;;21.25;10.43;;;-1.60;99.90;;;;;;21134562;28;20085;-54
2022/03/11 22:32:54;;;;;;;22.17;9.57;;;-1.60;99.90;;;;;;21149519;28;20101;-52
2022/03/11 22:42:58;;;;;;;17.85;9.05;;;-1.60;99.90;;;;;;21149394;28;20040;-56
2022/03/11 22:53:04;;;;;;;17.73;8.98;;;-1.70;99.90;;;;;;21149864;28;20040;-56
2022/03/11 23:03:07;;;;;;;19.83;10.00;;;-1.70;99.90;;;;;;21148947;28;20353;-53
2022/03/11 23:13:10;;;;;;;17.30;9.27;;;-1.70;99.90;;;;;;21164453;28;20456;-52
2022/03/11 23:23:14;;;;;;;18.40;9.52;;;-1.70;99.90;;;;;;21146142;28;20105;-51
2022/03/11 23:33:29;;;;;;;20.58;9.60;;;-1.80;99.90;;;;;;21145037;28;20032;-55
2022/03/11 23:43:34;;;;;;;17.63;9.27;;;-1.80;99.90;;;;;;21146152;28;20100;-52
2022/03/11 23:53:36;;;;;;;18.15;9.02;;;-1.80;99.90;;;;;;21142867;28;20031;-51
